CYOW/YOW METAR and TAF weather

Enter ICAO airport designator
Station Type Date Time Source
CYOW METAR 2018/10/22 16:00 UTC NOAA

CYOW 221600Z 04004KT 15SM BKN057 BKN070 03/M04 A3010 RMK SC7AC1 AC TR SLP200


Station Type Date Time Source
CYOW Decoded METAR 2018/10/22 16:00 UTC NOAA

Ottawa Int'L. Ont., Canada (CYOW) 45-19N 075-40W 114M
Oct 22, 2018 - 12:00 PM EDT / 2018.10.22 1600 UTC
Wind: from the NE (040 degrees) at 5 MPH (4 KT):0
Visibility: 15 mile(s):0
Sky conditions: mostly cloudy
Temperature: 37 F (3 C)
Dew Point: 24 F (-4 C)
Relative Humidity: 59%
Pressure (altimeter): 30.1 in. Hg (1019 hPa)
ob: CYOW 221600Z 04004KT 15SM BKN057 BKN070 03/M04 A3010 RMK SC7AC1 AC TR SLP200
cycle: 16

Station Type Date Time Source
CYOW TAF 2018/10/22 15:42 UTC NOAA

TAF CYOW 221438Z 2215/2312 VRB03KT P6SM BKN070
FM221700 16006KT P6SM SCT020 BKN050
TEMPO 2217/2302 P6SM -SHRA BKN020 OVC050
BECMG 2219/2221 08006KT
FM230200 08005KT 4SM -SHRA BR BKN006 OVC015
FM230600 07005KT 1SM -DZ BR OVC003
RMK NXT FCST BY 221800Z


Example: see airport list